Terminal Aerodrome Forecast
Issued by NWS Quad Cities IA IL

Home | Current Version | Previous Version | Text Only | Print | Product List | Glossary On
Versions: 1 2 3 4 5 6 7 8 9 10 11 12 13 14 15 16 17 18 19 20 21 22 23 24 25 26 27
800
FTUS43 KDVN 211804 AAA
TAFMLI
TAF AMD
KMLI 211804Z 2118/2218 13009KT 5SM -SHRA VCTS SCT050 BKN080CB
      TEMPO 2118/2120 2SM TSRA SCT040 OVC060CB
     FM212100 16009KT P6SM BKN090
     FM220100 14008KT P6SM SCT090
     FM220600 17008KT P6SM SCT120 WS020/23042KT
     FM221200 21010KT P6SM BKN150=

USA.gov is the U.S. government's official web portal to all federal, state and local government web resources and services.